Sunpower — 3FBW8 — position and weather

sailwx.info

Track history (hours):
 
Tides and Currents Weather Stations Pressure Air Temp Water Temp Dewpoint Dewpoint Depression Visibility Wind Speed Wind Dir Waves Ship Positions

Sunpower

Last reported at 2018-Feb-25 00:30 UTC. Time now 2018-Feb-25 18:15 UTC.
Position N 35°56' E 014°50'.

Length 102 m; draft 5 m.

Type: Tanker. MMSI: 355306000.

Date/timePositionNaut miles runAvg speedWind from/ knotsBaromVisibWave heightAir tempDewpointWater temp
2018-Feb-25 00:30N 35°56' E 014°50'7 0.5
2018-Feb-24 11:14N 35°56' E 014°42'2 8.3
2018-Feb-24 10:59N 35°56' E 014°39'1 2.5
2018-Feb-24 10:30N 35°56' E 014°38'0 1.0
2018-Feb-24 10:00N 35°56' E 014°37'0 0.4
2018-Feb-24 09:30N 35°56' E 014°37'0 0.8
2018-Feb-24 09:00N 35°56' E 014°37'2 3.7
2018-Feb-24 08:30N 35°56' E 014°39'9 0.4
2018-Feb-23 07:15N 35°57' E 014°50'0 0.1
2018-Feb-23 06:55N 35°57' E 014°50'0 0.0
2018-Feb-23 06:14N 35°57' E 014°50'0 0.0
2018-Feb-23 05:54N 35°57' E 014°50'0 0.0
2018-Feb-23 05:29N 35°57' E 014°50'0 0.0
2018-Feb-23 04:57N 35°57' E 014°50'0 0.0
2018-Feb-23 04:27N 35°57' E 014°50'0 0.0
2018-Feb-23 03:57N 35°57' E 014°50'0 0.1
2018-Feb-23 03:30N 35°57' E 014°50'0 0.0
2018-Feb-23 02:54N 35°57' E 014°50'0 0.0
2018-Feb-23 02:27N 35°57' E 014°50'0 0.0
2018-Feb-23 01:46N 35°57' E 014°50'0 0.0
2018-Feb-23 01:14N 35°57' E 014°50'0 0.0
2018-Feb-23 00:39N 35°57' E 014°50'0 0.1
2018-Feb-23 00:26N 35°57' E 014°50'0 0.0
2018-Feb-22 23:55N 35°57' E 014°50'0 0.0
2018-Feb-22 23:30N 35°57' E 014°50'0 0.0
2018-Feb-22 23:00N 35°57' E 014°50'0 0.0
2018-Feb-22 22:15N 35°57' E 014°50'0 0.1
2018-Feb-22 21:57N 35°57' E 014°50'0 0.0
2018-Feb-22 21:25N 35°57' E 014°50'0 0.0
2018-Feb-22 13:03N 35°57' E 014°50'0 1.1
2018-Feb-22 12:58N 35°57' E 014°50'4 5.2
2018-Feb-22 12:13N 35°57' E 014°45'2 7.4
2018-Feb-22 11:57N 35°57' E 014°43'4 7.4
2018-Feb-22 11:26N 35°58' E 014°38'3 6.4
2018-Feb-22 10:59N 35°57' E 014°35'1 1.5
2018-Feb-22 10:30N 35°57' E 014°35'1 1.5
2018-Feb-22 09:58N 35°56' E 014°36'1 1.5
2018-Feb-22 09:30N 35°55' E 014°37'2 3.3
2018-Feb-22 09:00N 35°56' E 014°39'  
Track history (hours):
 
Tides and Currents Weather Stations Pressure Air Temp Water Temp Dewpoint Dewpoint Depression Visibility Wind Speed Wind Dir Waves Ship Positions

Sunpower

Last reported at 2018-Feb-25 00:30 UTC. Time now 2018-Feb-25 18:15 UTC.
Position N 35°56' E 014°50'.

Length 102 m; draft 5 m.

Type: Tanker. MMSI: 355306000.

Date/timePositionNaut miles runAvg speedWind from/ knotsBaromVisibWave heightAir tempDewpointWater temp
2018-Feb-25 00:30N 35°56' E 014°50'7 0.5
2018-Feb-24 11:14N 35°56' E 014°42'2 8.3
2018-Feb-24 10:59N 35°56' E 014°39'1 2.5
2018-Feb-24 10:30N 35°56' E 014°38'0 1.0
2018-Feb-24 10:00N 35°56' E 014°37'0 0.4
2018-Feb-24 09:30N 35°56' E 014°37'0 0.8
2018-Feb-24 09:00N 35°56' E 014°37'2 3.7
2018-Feb-24 08:30N 35°56' E 014°39'9 0.4
2018-Feb-23 07:15N 35°57' E 014°50'0 0.1
2018-Feb-23 06:55N 35°57' E 014°50'0 0.0
2018-Feb-23 06:14N 35°57' E 014°50'0 0.0
2018-Feb-23 05:54N 35°57' E 014°50'0 0.0
2018-Feb-23 05:29N 35°57' E 014°50'0 0.0
2018-Feb-23 04:57N 35°57' E 014°50'0 0.0
2018-Feb-23 04:27N 35°57' E 014°50'0 0.0
2018-Feb-23 03:57N 35°57' E 014°50'0 0.1
2018-Feb-23 03:30N 35°57' E 014°50'0 0.0
2018-Feb-23 02:54N 35°57' E 014°50'0 0.0
2018-Feb-23 02:27N 35°57' E 014°50'0 0.0
2018-Feb-23 01:46N 35°57' E 014°50'0 0.0
2018-Feb-23 01:14N 35°57' E 014°50'0 0.0
2018-Feb-23 00:39N 35°57' E 014°50'0 0.1
2018-Feb-23 00:26N 35°57' E 014°50'0 0.0
2018-Feb-22 23:55N 35°57' E 014°50'0 0.0
2018-Feb-22 23:30N 35°57' E 014°50'0 0.0
2018-Feb-22 23:00N 35°57' E 014°50'0 0.0
2018-Feb-22 22:15N 35°57' E 014°50'0 0.1
2018-Feb-22 21:57N 35°57' E 014°50'0 0.0
2018-Feb-22 21:25N 35°57' E 014°50'0 0.0
2018-Feb-22 13:03N 35°57' E 014°50'0 1.1
2018-Feb-22 12:58N 35°57' E 014°50'4 5.2
2018-Feb-22 12:13N 35°57' E 014°45'2 7.4
2018-Feb-22 11:57N 35°57' E 014°43'4 7.4
2018-Feb-22 11:26N 35°58' E 014°38'3 6.4
2018-Feb-22 10:59N 35°57' E 014°35'1 1.5
2018-Feb-22 10:30N 35°57' E 014°35'1 1.5
2018-Feb-22 09:58N 35°56' E 014°36'1 1.5
2018-Feb-22 09:30N 35°55' E 014°37'2 3.3
2018-Feb-22 09:00N 35°56' E 014°39'  

Dump ship's entire track history